Time;durP1;ratioP1;P1;durP2;ratioP2;P2;SDS_P1;SDS_P2;PMS_P1;PMS_P2;Temp;Humidity;BMP_temperature;BMP_pressure;BME280_temperature;BME280_humidity;BME280_pressure;Samples;Min_cycle;Max_cycle;Signal;HPM_P1;HPM_P2
2022/08/05 00:02:22;;;;;;;13.50;7.72;;;;;;;21.49;52.78;100160.73;2102905;84;29909;-59
2022/08/05 00:05:23;;;;;;;10.98;7.47;;;;;;;21.46;52.87;100163.75;2103183;84;27792;-59
2022/08/05 00:08:25;;;;;;;15.23;8.95;;;;;;;21.42;52.98;100159.63;2103050;84;29383;-59
2022/08/05 00:11:27;;;;;;;12.80;7.42;;;;;;;21.38;53.25;100156.33;2103427;84;31757;-59
2022/08/05 00:14:28;;;;;;;8.50;6.85;;;;;;;21.34;53.16;100152.21;2103294;84;32989;-58
2022/08/05 00:17:29;;;;;;;8.60;7.37;;;;;;;21.30;53.37;100154.88;2105721;84;29705;-58
2022/08/05 00:20:31;;;;;;;8.20;7.40;;;;;;;21.24;53.33;100152.25;2105606;84;27986;-59
2022/08/05 00:23:32;;;;;;;9.78;7.30;;;;;;;21.19;53.48;100146.38;2105585;84;29406;-58
2022/08/05 00:26:33;;;;;;;10.60;7.55;;;;;;;21.16;53.52;100143.10;2105638;84;31412;-59
2022/08/05 00:29:34;;;;;;;9.38;7.58;;;;;;;21.13;53.74;100145.60;2105464;84;33321;-59
2022/08/05 00:32:35;;;;;;;8.68;6.95;;;;;;;21.10;53.82;100139.95;2102414;84;30447;-59
2022/08/05 00:35:39;;;;;;;8.95;7.25;;;;;;;21.07;54.04;100139.41;2101822;84;27737;-59
2022/08/05 00:38:40;;;;;;;7.62;6.58;;;;;;;21.04;54.12;100135.09;2101453;84;29109;-60
2022/08/05 00:41:45;;;;;;;10.28;7.12;;;;;;;21.02;54.14;100140.34;2101575;84;31933;-59
2022/08/05 00:44:46;;;;;;;7.72;7.00;;;;;;;20.98;54.25;100137.06;2101811;84;34141;-60
2022/08/05 00:47:48;;;;;;;8.23;7.53;;;;;;;20.97;54.09;100130.39;2101792;84;29687;-60
2022/08/05 00:50:51;;;;;;;9.70;7.20;;;;;;;20.93;54.40;100132.04;2101802;84;27767;-60
2022/08/05 00:53:52;;;;;;;9.00;7.40;;;;;;;20.90;54.41;100127.40;2101500;84;29854;-62
2022/08/05 00:56:54;;;;;;;9.78;7.25;;;;;;;20.88;54.41;100123.97;2101341;84;33099;-60
2022/08/05 00:59:55;;;;;;;9.80;8.20;;;;;;;20.84;54.38;100125.29;2101353;84;34504;-59
2022/08/05 01:02:58;;;;;;;8.85;6.80;;;;;;;20.82;54.79;100125.42;2101817;84;29750;-59
2022/08/05 01:05:59;;;;;;;11.80;7.62;;;;;;;20.78;54.97;100117.18;2101437;84;27825;-60
2022/08/05 01:09:01;;;;;;;7.55;6.60;;;;;;;20.76;54.89;100124.66;2101721;84;29041;-60
2022/08/05 01:12:13;;;;;;;8.05;7.22;;;;;;;20.71;54.88;100120.12;2101869;84;32220;-59
2022/08/05 01:15:16;;;;;;;8.08;7.05;;;;;;;20.68;54.83;100117.20;2101755;84;33033;-60
2022/08/05 01:18:23;;;;;;;7.30;6.60;;;;;;;20.64;55.04;100115.77;2101654;84;29704;-59
2022/08/05 01:21:53;;;;;;;10.48;7.30;;;;;;;20.59;55.27;100110.77;2101828;84;27575;-59
2022/08/05 01:25:35;;;;;;;10.18;7.67;;;;;;;20.56;55.13;100106.09;2062943;85;29027;-59
2022/08/05 01:28:41;;;;;;;8.70;7.20;;;;;;;20.53;55.39;100102.30;2062855;86;31413;-58
2022/08/05 01:31:47;;;;;;;8.28;7.45;;;;;;;20.48;55.53;100097.30;2055230;86;33439;-60
2022/08/05 01:35:01;;;;;;;8.03;7.00;;;;;;;20.43;55.66;100099.11;2050285;86;30175;-60
2022/08/05 01:38:04;;;;;;;9.30;7.33;;;;;;;20.38;55.64;100098.67;2050510;86;27692;-61
2022/08/05 01:41:07;;;;;;;9.05;7.58;;;;;;;20.34;55.70;100099.99;2050603;86;29718;-60
2022/08/05 01:44:09;;;;;;;9.25;7.40;;;;;;;20.30;55.87;100089.03;2028196;86;31213;-60
2022/08/05 01:47:11;;;;;;;17.17;7.58;;;;;;;20.26;56.04;100091.19;2052108;86;33908;-61
2022/08/05 01:50:38;;;;;;;10.58;7.22;;;;;;;20.23;56.34;100091.96;2052288;86;29641;-59
2022/08/05 01:53:40;;;;;;;7.75;6.95;;;;;;;20.18;56.21;100089.20;2049452;82;27730;-63
2022/08/05 01:56:43;;;;;;;8.85;7.05;;;;;;;20.14;56.31;100079.59;2029473;86;28734;-63
2022/08/05 01:59:46;;;;;;;8.25;7.45;;;;;;;20.11;56.38;100088.52;2052431;85;30771;-57
2022/08/05 02:03:01;;;;;;;9.33;7.92;;;;;;;20.08;56.59;100090.20;2072386;84;33614;-62
2022/08/05 02:06:04;;;;;;;;;;;;;;;20.04;56.61;100082.80;2076261;85;29976;-60
2022/08/05 02:09:06;;;;;;;8.90;7.83;;;;;;;19.99;56.81;100079.16;2074448;85;27663;-62
2022/08/05 02:12:42;;;;;;;8.88;7.80;;;;;;;19.94;56.88;100086.03;2074840;85;28638;-59
2022/08/05 02:15:54;;;;;;;11.85;9.60;;;;;;;19.88;57.05;100073.36;2074502;85;32498;-64
2022/08/05 02:19:06;;;;;;;9.60;8.55;;;;;;;19.85;56.97;100074.12;2074914;85;33615;-63
2022/08/05 02:22:29;;;;;;;10.05;8.83;;;;;;;19.82;57.25;100074.39;2074663;85;29340;-58
2022/08/05 02:25:35;;;;;;;16.77;9.83;;;;;;;19.79;57.36;100076.03;2074814;85;27687;-58
2022/08/05 02:28:42;;;;;;;12.55;8.80;;;;;;;19.73;57.35;100076.98;2074825;85;28269;-59
2022/08/05 02:31:45;;;;;;;8.90;8.00;;;;;;;19.71;57.47;100074.02;2074787;85;31033;-59
2022/08/05 02:34:49;;;;;;;10.32;9.28;;;;;;;19.64;57.71;100063.38;2074788;85;33047;-58
2022/08/05 02:37:52;;;;;;;12.23;8.98;;;;;;;19.59;57.70;100068.73;2074668;85;29456;-56
2022/08/05 02:40:54;;;;;;;10.95;8.70;;;;;;;19.57;57.66;100061.72;2074626;85;27679;-56
2022/08/05 02:43:57;;;;;;;14.33;8.33;;;;;;;19.54;57.90;100062.00;2074312;85;29881;-56
2022/08/05 02:46:59;;;;;;;13.15;9.28;;;;;;;19.52;57.92;100061.27;2072962;85;31615;-56
2022/08/05 02:50:02;;;;;;;10.65;8.58;;;;;;;19.48;57.91;100066.63;2074447;85;34156;-56
2022/08/05 02:53:03;;;;;;;8.90;8.00;;;;;;;19.46;57.99;100067.26;2074788;85;29961;-55
2022/08/05 02:56:09;;;;;;;9.85;8.13;;;;;;;19.42;58.11;100062.61;2073731;85;27679;-56
2022/08/05 02:59:12;;;;;;;8.90;8.03;;;;;;;19.39;58.15;100066.48;2073944;85;28691;-58
2022/08/05 03:02:16;;;;;;;12.33;8.23;;;;;;;19.37;58.33;100064.88;2073515;85;31078;-58
2022/08/05 03:05:18;;;;;;;10.78;8.20;;;;;;;19.35;58.44;100064.19;2074036;85;33055;-58
2022/08/05 03:08:20;;;;;;;9.40;8.48;;;;;;;19.30;58.48;100060.50;2073812;85;29123;-56
2022/08/05 03:11:24;;;;;;;13.18;7.62;;;;;;;19.27;58.52;100056.73;2074066;85;27523;-57
2022/08/05 03:14:26;;;;;;;10.63;8.25;;;;;;;19.23;58.71;100062.08;2072715;85;28637;-57
2022/08/05 03:17:28;;;;;;;10.23;9.00;;;;;;;19.19;58.74;100051.13;2110212;84;31688;-59
2022/08/05 03:20:29;;;;;;;12.70;8.40;;;;;;;19.18;58.76;100049.40;2109915;84;33434;-57
2022/08/05 03:23:33;;;;;;;10.88;8.50;;;;;;;19.17;59.01;100052.62;2109816;84;30513;-61
2022/08/05 03:26:34;;;;;;;10.85;8.03;;;;;;;19.15;59.01;100049.19;2110230;84;27705;-58
2022/08/05 03:29:36;;;;;;;14.00;7.60;;;;;;;19.13;59.28;100052.53;2110318;84;28614;-57
2022/08/05 03:32:38;;;;;;;9.58;7.80;;;;;;;19.10;59.27;100048.25;2110304;84;31352;-57
2022/08/05 03:35:39;;;;;;;9.95;8.13;;;;;;;19.10;59.40;100041.47;2110130;84;33319;-57
2022/08/05 03:38:41;;;;;;;10.43;7.95;;;;;;;19.09;59.21;100046.53;2110276;84;29229;-57
2022/08/05 03:41:42;;;;;;;12.47;8.13;;;;;;;19.10;59.45;100039.23;2110101;84;27700;-57
2022/08/05 03:44:44;;;;;;;13.08;8.83;;;;;;;19.11;59.44;100042.30;2111901;84;29090;-62
2022/08/05 03:47:45;;;;;;;9.35;8.30;;;;;;;19.10;59.46;100045.53;2115551;83;31388;-57
2022/08/05 03:51:12;;;;;;;11.97;8.35;;;;;;;19.12;59.55;100038.08;2115655;84;33406;-57
2022/08/05 03:54:30;;;;;;;13.65;8.33;;;;;;;19.15;59.51;100040.16;2115506;82;29342;-60
2022/08/05 03:57:32;;;;;;;9.20;8.25;;;;;;;19.16;59.55;100045.95;2115700;83;27705;-58
2022/08/05 04:00:34;;;;;;;13.40;7.75;;;;;;;19.16;59.72;100042.77;2115365;83;29373;-58
2022/08/05 04:03:37;;;;;;;11.28;8.40;;;;;;;19.17;59.65;100039.53;2115809;84;31456;-57
2022/08/05 04:06:39;;;;;;;8.93;7.70;;;;;;;19.19;59.86;100046.56;2115429;83;32974;-58
2022/08/05 04:09:40;;;;;;;13.25;7.55;;;;;;;19.21;59.80;100037.75;2115541;84;30545;-57
2022/08/05 04:12:42;;;;;;;10.43;7.35;;;;;;;19.25;59.76;100037.00;2115570;84;27732;-58
2022/08/05 04:15:45;;;;;;;19.85;8.18;;;;;;;19.30;59.88;100036.58;2111463;83;28704;-58
2022/08/05 04:18:46;;;;;;;8.93;7.83;;;;;;;19.33;59.91;100033.58;2110469;84;30914;-58
2022/08/05 04:21:48;;;;;;;15.72;8.65;;;;;;;19.37;59.80;100033.64;2110131;84;33731;-64
2022/08/05 04:24:49;;;;;;;12.37;8.28;;;;;;;19.42;59.82;100028.66;2110076;84;29100;-57
2022/08/05 04:27:50;;;;;;;11.33;7.25;;;;;;;19.48;59.83;100024.52;2114001;84;27732;-58
2022/08/05 04:30:52;;;;;;;12.98;8.20;;;;;;;19.53;59.95;100022.23;2115497;84;28507;-60
2022/08/05 04:33:53;;;;;;;11.25;8.55;;;;;;;19.57;59.80;100020.97;2115592;83;32184;-58
2022/08/05 04:36:55;;;;;;;9.78;7.70;;;;;;;19.63;59.76;100025.81;2115580;84;33367;-58
2022/08/05 04:39:56;;;;;;;11.40;7.85;;;;;;;19.69;59.78;100025.26;2115961;84;30006;-58
2022/08/05 04:42:57;;;;;;;13.25;8.55;;;;;;;19.76;59.79;100016.55;2115513;83;27680;-57
2022/08/05 04:45:58;;;;;;;9.60;8.13;;;;;;;19.84;59.73;100022.11;2111224;84;28639;-58
2022/08/05 04:48:59;;;;;;;12.25;7.90;;;;;;;19.90;59.88;100027.02;2110142;84;31033;-58
2022/08/05 04:52:00;;;;;;;10.55;7.87;;;;;;;19.99;59.66;100022.05;2110230;84;33306;-60
2022/08/05 04:55:02;;;;;;;14.53;7.30;;;;;;;20.11;59.71;100027.33;2113945;82;28960;-57
2022/08/05 04:58:06;;;;;;;10.90;7.72;;;;;;;20.36;59.77;100030.45;2136420;83;27699;-58
2022/08/05 05:01:07;;;;;;;12.00;8.50;;;;;;;21.09;59.91;100029.80;2136655;83;29455;-57
2022/08/05 05:04:09;;;;;;;13.83;8.80;;;;;;;22.12;59.32;100030.84;2136425;83;30771;-59
2022/08/05 05:07:10;;;;;;;10.10;7.90;;;;;;;23.04;58.09;100034.53;2136826;83;33374;-58
2022/08/05 05:10:12;;;;;;;19.20;8.08;;;;;;;23.85;56.97;100026.36;2136335;83;29698;-58
2022/08/05 05:13:17;;;;;;;11.88;7.20;;;;;;;24.42;55.80;100029.63;2136856;83;27720;-58
2022/08/05 05:16:18;;;;;;;10.28;6.80;;;;;;;24.88;55.10;100024.92;2138430;83;29697;-58
2022/08/05 05:19:19;;;;;;;10.58;7.50;;;;;;;25.30;53.30;100022.86;2138852;82;30835;-58
2022/08/05 05:22:20;;;;;;;13.95;8.88;;;;;;;25.60;53.35;100021.67;2138134;83;32723;-57
2022/08/05 05:25:22;;;;;;;9.65;7.35;;;;;;;25.90;52.53;100021.30;2136450;83;29334;-57
2022/08/05 05:28:25;;;;;;;9.20;7.47;;;;;;;26.15;51.79;100014.77;2136363;83;27681;-58
2022/08/05 05:31:26;;;;;;;12.80;8.05;;;;;;;26.28;50.99;100019.64;2135949;83;29527;-57
2022/08/05 05:34:29;;;;;;;15.15;9.15;;;;;;;26.40;50.04;100018.14;2136434;83;32186;-58
2022/08/05 05:37:30;;;;;;;18.23;8.75;;;;;;;26.47;49.52;100013.62;2136650;83;32892;-57
2022/08/05 05:40:33;;;;;;;10.03;8.50;;;;;;;26.49;49.38;100014.78;2136434;83;28808;-60
2022/08/05 05:43:35;;;;;;;12.63;7.80;;;;;;;26.59;49.32;100016.73;2136581;83;27652;-58
2022/08/05 05:46:36;;;;;;;13.58;7.90;;;;;;;26.67;48.87;100015.78;2136649;83;29817;-60
2022/08/05 05:49:37;;;;;;;15.32;7.28;;;;;;;26.74;48.48;100022.24;2136272;83;32338;-58
2022/08/05 05:52:39;;;;;;;9.95;7.55;;;;;;;26.87;48.50;100024.88;2137065;83;33081;-57
2022/08/05 05:55:40;;;;;;;12.00;7.95;;;;;;;27.00;48.17;100025.05;2138682;83;29759;-58
2022/08/05 05:58:46;;;;;;;13.38;8.10;;;;;;;27.19;47.99;100022.75;2139084;83;27660;-57
2022/08/05 06:01:47;;;;;;;13.38;7.92;;;;;;;27.29;47.48;100018.66;2138978;83;29305;-57
2022/08/05 06:04:48;;;;;;;12.05;7.47;;;;;;;27.42;47.29;100020.72;2138772;83;31099;-59
2022/08/05 06:07:50;;;;;;;11.55;8.08;;;;;;;27.62;47.21;100017.88;2138543;83;32869;-58
2022/08/05 06:10:51;;;;;;;9.15;7.15;;;;;;;27.85;46.91;100020.44;2138926;83;30486;-58
2022/08/05 06:13:52;;;;;;;10.43;7.85;;;;;;;28.17;46.74;100027.35;2138864;83;28163;-58
2022/08/05 06:16:54;;;;;;;12.20;7.37;;;;;;;28.55;46.47;100020.64;2138940;83;29828;-57
2022/08/05 06:19:55;;;;;;;14.38;7.15;;;;;;;28.87;45.43;100014.72;2138782;83;31390;-59
2022/08/05 06:22:58;;;;;;;13.25;7.92;;;;;;;29.21;45.39;100015.19;2137855;81;33012;-58
2022/08/05 06:25:59;;;;;;;12.88;7.30;;;;;;;29.73;44.63;100015.25;2136403;83;29380;-58
2022/08/05 06:29:00;;;;;;;10.53;6.70;;;;;;;30.22;44.22;100018.73;2136609;83;27672;-58
2022/08/05 06:32:01;;;;;;;10.60;7.35;;;;;;;30.80;43.71;100019.42;2136474;83;28381;-58
2022/08/05 06:35:04;;;;;;;10.13;6.78;;;;;;;31.39;43.11;100014.44;2136648;83;31546;-61
2022/08/05 06:38:05;;;;;;;12.18;7.50;;;;;;;32.03;42.09;100013.92;2136415;83;32970;-59
2022/08/05 06:41:07;;;;;;;7.67;6.55;;;;;;;32.67;41.64;100004.62;2136568;83;29276;-60
2022/08/05 06:44:08;;;;;;;10.55;7.62;;;;;;;33.26;41.36;100006.41;2137211;83;27707;-58
2022/08/05 06:47:10;;;;;;;22.73;7.97;;;;;;;33.65;40.04;100004.72;2136559;83;29797;-59
2022/08/05 06:50:11;;;;;;;9.18;7.05;;;;;;;33.95;38.69;99995.52;2136477;83;31308;-58
2022/08/05 06:53:13;;;;;;;11.45;6.87;;;;;;;34.11;38.12;100004.23;2137619;83;34051;-58
2022/08/05 06:56:15;;;;;;;8.38;6.42;;;;;;;34.34;38.23;100003.41;2138949;83;29713;-58
2022/08/05 06:59:16;;;;;;;7.55;6.75;;;;;;;34.41;37.76;100006.92;2139619;82;27695;-58
2022/08/05 07:02:17;;;;;;;8.53;6.90;;;;;;;34.68;37.50;100007.31;2139470;83;29241;-57
2022/08/05 07:05:18;;;;;;;8.73;7.12;;;;;;;35.02;37.51;100007.22;2139375;83;31433;-59
2022/08/05 07:08:23;;;;;;;10.80;6.78;;;;;;;35.47;36.55;100000.08;2139551;83;33413;-58
2022/08/05 07:11:27;;;;;;;6.10;3.75;;;;;;;35.87;36.37;100003.30;2139734;83;30161;-58
2022/08/05 07:17:47;;;;;;;6.72;6.08;;;;;;;36.59;34.88;99995.27;2139199;83;29896;-57
2022/08/05 07:20:49;;;;;;;8.83;6.17;;;;;;;36.74;34.60;99995.48;2139366;83;32222;-59
2022/08/05 07:23:50;;;;;;;14.87;6.53;;;;;;;36.99;33.96;99994.71;2135260;83;34106;-59
2022/08/05 07:26:51;;;;;;;10.48;6.85;;;;;;;37.24;33.39;99995.58;2133855;83;30205;-64
2022/08/05 07:29:53;;;;;;;12.95;6.85;;;;;;;37.47;33.46;99992.23;2133837;83;27670;-63
2022/08/05 07:32:54;;;;;;;10.23;6.97;;;;;;;37.59;32.59;99990.69;2133937;83;28783;-62
2022/08/05 07:35:55;;;;;;;8.08;7.30;;;;;;;37.77;32.38;99983.31;2133872;83;30746;-65
2022/08/05 07:38:56;;;;;;;7.65;6.58;;;;;;;37.78;32.37;99983.60;2133808;83;33619;-64
2022/08/05 07:41:57;;;;;;;11.33;5.40;;;;;;;37.77;31.81;99981.91;2134054;83;30069;-59
2022/08/05 07:44:59;;;;;;;11.25;6.78;;;;;;;37.64;31.42;99983.19;2133829;82;27719;-64
2022/08/05 07:48:00;;;;;;;8.53;6.55;;;;;;;37.63;31.31;99987.66;2133737;82;29897;-58
2022/08/05 07:51:02;;;;;;;6.70;5.97;;;;;;;37.64;30.94;99985.16;2133749;83;32202;-64
2022/08/05 07:54:05;;;;;;;7.60;4.45;;;;;;;37.45;31.11;99984.13;2138438;83;48345;-62
2022/08/05 07:57:06;;;;;;;12.70;6.80;;;;;;;37.66;31.24;99985.16;2138756;83;30558;-63
2022/08/05 08:00:10;;;;;;;14.07;7.08;;;;;;;37.89;30.66;99986.48;2138312;82;27773;-63
2022/08/05 08:03:12;;;;;;;5.30;3.52;;;;;;;37.95;30.53;99977.89;2138364;83;28716;-63
2022/08/05 08:06:14;;;;;;;2.83;2.03;;;;;;;38.07;30.71;99977.71;2138582;83;31040;-64
2022/08/05 08:09:15;;;;;;;11.15;5.75;;;;;;;38.17;30.41;99981.69;2138369;83;33657;-64
2022/08/05 08:12:17;;;;;;;3.77;3.47;;;;;;;38.39;30.11;99981.61;2138374;83;29542;-63
2022/08/05 08:15:18;;;;;;;6.75;4.42;;;;;;;38.54;30.04;99987.30;2138709;83;27692;-64
2022/08/05 08:18:19;;;;;;;6.12;5.53;;;;;;;38.70;29.68;99988.79;2138557;83;28876;-61
2022/08/05 08:21:21;;;;;;;4.92;4.42;;;;;;;38.69;28.94;99980.92;2138696;81;30965;-60
2022/08/05 08:24:22;;;;;;;4.42;3.47;;;;;;;38.61;29.10;99981.46;2136322;83;32932;-63
2022/08/05 08:27:23;;;;;;;10.70;4.97;;;;;;;38.67;28.98;99975.33;2137007;83;29314;-64
2022/08/05 08:30:24;;;;;;;3.12;2.83;;;;;;;38.79;28.84;99972.31;2138450;83;27656;-65
2022/08/05 08:33:25;;;;;;;2.42;1.70;;;;;;;38.84;28.74;99969.54;2138943;83;29263;-65
2022/08/05 08:36:27;;;;;;;1.55;1.45;;;;;;;38.86;28.73;99969.58;2138695;83;31061;-59
2022/08/05 08:39:28;;;;;;;2.58;2.27;;;;;;;38.99;28.84;99971.00;2138638;83;33639;-60
2022/08/05 08:42:31;;;;;;;5.70;4.72;;;;;;;39.05;28.48;99972.72;2138777;83;30029;-63
2022/08/05 08:45:35;;;;;;;4.17;3.85;;;;;;;38.90;28.07;99962.28;2124201;83;27650;-59
2022/08/05 08:48:38;;;;;;;9.20;4.62;;;;;;;38.96;28.33;99966.52;2113929;83;29311;-59
2022/08/05 08:51:41;;;;;;;;;;;;;;;39.05;27.98;99968.52;2140606;83;31162;-61
2022/08/05 08:54:43;;;;;;;2.92;1.90;;;;;;;38.75;27.71;99965.84;2136283;83;33866;-65
2022/08/05 08:57:47;;;;;;;9.50;4.62;;;;;;;38.69;28.10;99966.93;2136004;83;30564;-61
2022/08/05 09:00:50;;;;;;;4.33;2.83;;;;;;;38.75;27.59;99964.45;2136080;83;27719;-64
2022/08/05 09:03:55;;;;;;;3.83;1.75;;;;;;;38.63;27.79;99957.38;2136365;83;29542;-63
2022/08/05 09:06:57;;;;;;;2.77;1.52;;;;;;;38.57;28.04;99960.14;2135960;83;32451;-61
2022/08/05 09:09:58;;;;;;;3.52;2.98;;;;;;;38.42;28.01;99961.45;2136327;83;33007;-63
2022/08/05 09:13:01;;;;;;;4.22;3.83;;;;;;;38.35;28.08;99960.84;2136537;83;29945;-58
2022/08/05 09:16:07;;;;;;;10.33;5.60;;;;;;;38.17;28.36;99948.11;2137032;83;27655;-63
2022/08/05 09:19:08;;;;;;;5.65;3.67;;;;;;;37.99;28.06;99953.88;2136324;83;28719;-58
2022/08/05 09:22:10;;;;;;;3.22;2.95;;;;;;;37.68;27.77;99950.80;2137487;83;31679;-62
2022/08/05 09:25:17;;;;;;;7.37;2.95;;;;;;;37.35;28.44;99946.24;2139051;83;33935;-63
2022/08/05 09:28:27;;;;;;;3.08;2.85;;;;;;;37.23;28.75;99943.62;2138027;83;29704;-59
2022/08/05 09:31:25;;;;;;;5.67;3.55;;;;;;;37.16;29.04;99946.60;2138572;83;27788;-61
2022/08/05 09:34:51;;;;;;;4.23;3.10;;;;;;;37.17;29.15;99947.47;2138787;83;30170;-64
2022/08/05 09:37:55;;;;;;;4.12;2.50;;;;;;;37.11;29.24;99950.76;2138775;83;31026;-57
2022/08/05 09:41:04;;;;;;;8.08;5.67;;;;;;;37.00;29.01;99951.19;2138838;83;32986;-58
2022/08/05 09:44:05;;;;;;;3.27;3.05;;;;;;;36.65;28.45;99946.23;2137451;83;29341;-58
2022/08/05 09:47:13;;;;;;;7.58;5.03;;;;;;;36.54;29.32;99943.59;2138629;82;27790;-58
2022/08/05 09:50:18;;;;;;;3.37;2.87;;;;;;;36.52;29.32;99943.84;2138777;83;28650;-62
2022/08/05 09:53:20;;;;;;;4.70;2.98;;;;;;;36.15;28.64;99936.87;2137131;83;31395;-56
2022/08/05 09:56:32;;;;;;;8.80;5.25;;;;;;;35.92;29.31;99942.59;2136270;83;33742;-59
2022/08/05 09:59:33;;;;;;;11.18;4.78;;;;;;;35.81;30.32;99940.20;2136667;83;29351;-61
2022/08/05 10:02:39;;;;;;;6.25;4.53;;;;;;;35.79;30.15;99941.84;2136623;83;27720;-58
2022/08/05 10:05:41;;;;;;;7.60;4.30;;;;;;;35.65;30.22;99939.09;2136223;83;28691;-62
2022/08/05 10:08:42;;;;;;;5.37;2.25;;;;;;;35.57;30.69;99944.00;2136061;83;32246;-60
2022/08/05 10:11:44;;;;;;;5.35;4.67;;;;;;;35.48;30.35;99938.52;2146573;81;33051;-63
2022/08/05 10:14:45;;;;;;;4.15;3.42;;;;;;;35.24;29.37;99948.91;2156331;81;30514;-63
2022/08/05 10:18:04;;;;;;;3.33;2.67;;;;;;;34.93;29.39;99944.09;2135832;81;28422;-61
2022/08/05 10:21:06;;;;;;;4.50;2.70;;;;;;;34.72;30.14;99940.87;2148807;81;29092;-60
2022/08/05 10:24:15;;;;;;;8.03;3.77;;;;;;;34.53;30.01;99933.24;2161008;81;31085;-61
2022/08/05 10:27:16;;;;;;;2.37;2.05;;;;;;;34.29;29.39;99931.83;2160460;81;33658;-65
2022/08/05 10:30:17;;;;;;;3.60;2.27;;;;;;;33.95;29.64;99933.53;2146752;81;29478;-66
2022/08/05 10:33:22;;;;;;;2.15;1.67;;;;;;;33.61;30.09;99930.73;2165056;81;27557;-59
2022/08/05 10:36:23;;;;;;;4.30;3.08;;;;;;;33.41;29.83;99921.34;2158751;81;28843;-66
2022/08/05 10:39:32;;;;;;;2.30;2.10;;;;;;;33.22;30.54;99921.06;2157513;81;31044;-67
2022/08/05 10:42:37;;;;;;;2.00;1.60;;;;;;;33.13;30.78;99910.27;2166725;81;33579;-65
2022/08/05 10:45:38;;;;;;;4.45;3.90;;;;;;;33.08;30.38;99914.31;2168605;81;30263;-61
2022/08/05 10:48:44;;;;;;;4.30;2.98;;;;;;;32.97;30.17;99913.70;2161404;81;27788;-66
2022/08/05 10:51:49;;;;;;;5.78;3.45;;;;;;;32.95;29.91;99913.08;2156552;81;28706;-65
2022/08/05 10:55:06;;;;;;;6.78;3.33;;;;;;;32.84;30.56;99900.88;2165560;81;32225;-64
2022/08/05 10:58:10;;;;;;;4.40;3.62;;;;;;;32.96;30.24;99902.29;2154279;81;32956;-66
2022/08/05 11:01:11;;;;;;;5.70;4.15;;;;;;;33.05;30.01;99898.12;2166717;81;30372;-63
2022/08/05 11:04:16;;;;;;;3.10;2.55;;;;;;;33.10;30.11;99898.24;2172540;81;27699;-64
2022/08/05 11:07:19;;;;;;;4.95;2.75;;;;;;;33.18;30.09;99895.16;2172900;81;28790;-62
2022/08/05 11:10:23;;;;;;;4.40;2.67;;;;;;;33.16;30.30;99904.80;2142360;81;31725;-58
2022/08/05 11:13:43;;;;;;;3.17;2.98;;;;;;;32.96;30.36;99900.91;2138468;81;33860;-62
2022/08/05 11:16:44;;;;;;;10.98;3.60;;;;;;;32.78;30.42;99897.05;2138817;83;29127;-60
2022/08/05 11:19:47;;;;;;;2.45;1.82;;;;;;;32.70;30.71;99896.83;2139040;81;27683;-64
2022/08/05 11:22:51;;;;;;;2.77;2.47;;;;;;;32.59;31.07;99896.23;2138630;83;30791;-64
2022/08/05 11:26:12;;;;;;;5.28;3.42;;;;;;;32.51;31.06;99905.70;2138926;83;31222;-63
2022/08/05 11:29:39;;;;;;;2.85;1.60;;;;;;;32.46;30.87;99902.77;2136930;83;32968;-61
2022/08/05 11:32:41;;;;;;;2.75;2.55;;;;;;;32.58;30.91;99898.69;2136158;83;29429;-64
2022/08/05 11:35:54;;;;;;;1.98;1.77;;;;;;;32.55;31.01;99890.83;2136582;83;27686;-66
2022/08/05 11:38:56;;;;;;;3.47;1.80;;;;;;;32.56;31.59;99892.00;2136392;83;29362;-65
2022/08/05 11:41:57;;;;;;;1.35;1.25;;;;;;;32.57;31.62;99897.86;2136592;83;31674;-65
2022/08/05 11:45:04;;;;;;;3.27;2.98;;;;;;;32.67;31.72;99888.13;2136480;83;34051;-65
2022/08/05 11:48:09;;;;;;;4.37;3.22;;;;;;;32.68;30.84;99891.21;2136302;83;29357;-60
2022/08/05 11:51:10;;;;;;;1.55;1.50;;;;;;;32.73;31.17;99900.52;2136336;83;27643;-64
2022/08/05 11:54:16;;;;;;;4.05;1.62;;;;;;;32.71;31.67;99895.75;2113455;83;29503;-64
2022/08/05 11:57:18;;;;;;;6.30;1.85;;;;;;;32.68;31.62;99892.59;2135690;83;31203;-62
2022/08/05 12:00:30;;;;;;;7.12;2.27;;;;;;;32.64;31.49;99893.61;2136476;83;33116;-64
2022/08/05 12:03:55;;;;;;;3.17;1.98;;;;;;;32.58;31.73;99894.53;2136399;83;29554;-63
2022/08/05 12:07:00;;;;;;;3.10;2.80;;;;;;;32.48;31.62;99890.91;2136428;83;27649;-63
2022/08/05 12:10:04;;;;;;;1.60;1.50;;;;;;;32.39;31.60;99883.44;2136320;83;28684;-66
2022/08/05 12:13:05;;;;;;;3.55;2.92;;;;;;;32.25;31.87;99884.12;2136433;83;31868;-65
2022/08/05 12:16:08;;;;;;;1.12;1.12;;;;;;;32.19;31.58;99878.62;2136001;83;34220;-65
2022/08/05 12:19:11;;;;;;;3.43;2.93;;;;;;;32.17;31.92;99876.09;2136697;83;29809;-65
2022/08/05 12:22:16;;;;;;;2.17;1.98;;;;;;;32.06;30.58;99880.46;2136654;83;27620;-59
2022/08/05 12:25:17;;;;;;;4.65;3.17;;;;;;;32.14;31.28;99873.77;2136125;83;28750;-66
2022/08/05 12:28:34;;;;;;;5.45;3.55;;;;;;;32.17;31.02;99876.64;2138788;83;32355;-64
2022/08/05 12:31:36;;;;;;;3.77;2.55;;;;;;;32.12;30.83;99871.77;2138263;83;32427;-64
2022/08/05 12:34:38;;;;;;;1.65;1.55;;;;;;;32.09;31.06;99872.25;2138954;83;29949;-65
2022/08/05 12:37:40;;;;;;;2.42;1.30;;;;;;;32.10;31.44;99869.79;2138741;83;27684;-59
2022/08/05 12:40:42;;;;;;;1.22;1.12;;;;;;;32.08;31.86;99860.85;2138221;83;29596;-59
2022/08/05 12:43:53;;;;;;;1.67;1.57;;;;;;;31.98;32.20;99860.82;2138602;83;31035;-65
2022/08/05 12:46:55;;;;;;;7.22;2.37;;;;;;;31.88;32.52;99865.19;2138410;83;34292;-63
2022/08/05 12:49:57;;;;;;;1.70;1.60;;;;;;;31.74;32.46;99870.86;2138440;82;29738;-65
2022/08/05 12:52:58;;;;;;;1.25;1.10;;;;;;;31.62;32.65;99861.56;2138737;83;27624;-64
2022/08/05 12:56:00;;;;;;;2.55;1.52;;;;;;;31.56;32.85;99866.61;2138174;83;29050;-60
2022/08/05 12:59:22;;;;;;;1.70;1.60;;;;;;;31.47;32.85;99861.38;2136054;82;31685;-64
2022/08/05 13:02:27;;;;;;;2.87;1.50;;;;;;;31.40;32.93;99856.96;2136284;83;33362;-59
2022/08/05 13:05:28;;;;;;;1.52;1.40;;;;;;;31.31;32.78;99853.63;2136361;83;29701;-59
2022/08/05 13:08:30;;;;;;;1.82;1.72;;;;;;;31.25;33.08;99848.97;2136886;83;27665;-64
2022/08/05 13:11:31;;;;;;;4.10;3.60;;;;;;;31.15;32.85;99848.08;2136318;82;29059;-59
2022/08/05 13:14:48;;;;;;;3.00;2.22;;;;;;;31.08;32.87;99852.24;2136418;83;32193;-60
2022/08/05 13:17:54;;;;;;;2.10;1.67;;;;;;;31.09;32.81;99853.11;2135976;83;34229;-59
2022/08/05 13:20:55;;;;;;;2.95;2.08;;;;;;;31.09;32.59;99853.11;2136324;83;29693;-59
2022/08/05 13:23:57;;;;;;;2.20;2.00;;;;;;;31.03;32.73;99843.23;2138220;83;27609;-59
2022/08/05 13:26:58;;;;;;;5.37;2.15;;;;;;;31.04;32.89;99842.69;2138530;83;28769;-59
2022/08/05 13:30:05;;;;;;;2.40;2.02;;;;;;;31.08;33.12;99848.09;2138615;83;27734;-59
2022/08/05 13:33:07;;;;;;;1.45;1.35;;;;;;;31.06;32.56;99837.78;2138769;83;33116;-61
2022/08/05 13:36:09;;;;;;;2.47;2.27;;;;;;;31.10;32.58;99841.80;2138720;82;29080;-60
2022/08/05 13:39:12;;;;;;;3.67;2.77;;;;;;;31.06;32.57;99837.27;2138672;83;27747;-63
2022/08/05 13:42:13;;;;;;;3.63;2.63;;;;;;;31.09;31.56;99835.13;2139166;83;29663;-59
2022/08/05 13:45:15;;;;;;;3.40;1.50;;;;;;;31.13;31.47;99828.95;2138534;83;30781;-59
2022/08/05 13:48:16;;;;;;;1.98;1.87;;;;;;;31.26;31.86;99836.31;2138640;83;34109;-60
2022/08/05 13:51:28;;;;;;;4.03;3.60;;;;;;;31.34;30.92;99826.33;2139018;83;30237;-60
2022/08/05 13:54:29;;;;;;;1.82;1.65;;;;;;;31.33;32.17;99831.55;2136527;83;27683;-59
2022/08/05 13:57:30;;;;;;;1.67;1.57;;;;;;;31.29;32.41;99830.30;2136469;83;29082;-59
2022/08/05 14:00:34;;;;;;;1.85;1.70;;;;;;;31.21;32.27;99825.89;2130766;83;31454;-59
2022/08/05 14:03:35;;;;;;;2.83;2.63;;;;;;;31.15;32.54;99825.42;2131424;83;33022;-59
2022/08/05 14:06:36;;;;;;;2.08;1.62;;;;;;;31.10;31.92;99829.91;2131458;83;30598;-61
2022/08/05 14:09:38;;;;;;;2.60;1.87;;;;;;;31.03;32.49;99826.63;2131357;83;27715;-59
2022/08/05 14:12:41;;;;;;;3.67;1.87;;;;;;;30.98;31.98;99818.70;2130823;83;29225;-60
2022/08/05 14:15:42;;;;;;;2.13;1.97;;;;;;;30.99;32.47;99813.48;2131306;83;30712;-60
2022/08/05 14:18:44;;;;;;;2.80;2.60;;;;;;;30.99;32.98;99820.39;2131089;83;32998;-59
2022/08/05 14:21:45;;;;;;;2.55;1.60;;;;;;;30.94;32.59;99818.30;2131139;83;30436;-59